sensor_id;sensor_type;location;lat;lon;timestamp;temperature;humidity
19385;DHT22;9828;54.122;17.974;2023-04-24T00:02:28;14.10;99.90
19385;DHT22;9828;54.122;17.974;2023-04-24T00:08:08;14.00;99.90
19385;DHT22;9828;54.122;17.974;2023-04-24T00:13:30;14.00;99.90
19385;DHT22;9828;54.122;17.974;2023-04-24T00:18:51;14.00;99.90
19385;DHT22;9828;54.122;17.974;2023-04-24T00:24:17;13.90;99.90
19385;DHT22;9828;54.122;17.974;2023-04-24T00:29:38;13.90;99.90
19385;DHT22;9828;54.122;17.974;2023-04-24T00:35:00;13.90;99.90
19385;DHT22;9828;54.122;17.974;2023-04-24T00:40:21;14.00;99.90
19385;DHT22;9828;54.122;17.974;2023-04-24T00:45:43;14.00;99.90
19385;DHT22;9828;54.122;17.974;2023-04-24T00:51:04;13.90;99.90
19385;DHT22;9828;54.122;17.974;2023-04-24T00:56:26;14.00;99.90
19385;DHT22;9828;54.122;17.974;2023-04-24T01:01:48;14.00;99.90
19385;DHT22;9828;54.122;17.974;2023-04-24T01:07:09;14.00;99.90
19385;DHT22;9828;54.122;17.974;2023-04-24T01:12:32;13.90;99.90
19385;DHT22;9828;54.122;17.974;2023-04-24T01:17:54;13.80;99.90
19385;DHT22;9828;54.122;17.974;2023-04-24T01:23:15;13.80;99.90
19385;DHT22;9828;54.122;17.974;2023-04-24T01:28:38;13.80;99.90
19385;DHT22;9828;54.122;17.974;2023-04-24T01:33:59;13.80;99.90
19385;DHT22;9828;54.122;17.974;2023-04-24T01:39:21;13.80;99.90
19385;DHT22;9828;54.122;17.974;2023-04-24T01:44:44;13.80;99.90
19385;DHT22;9828;54.122;17.974;2023-04-24T01:50:06;13.70;99.90
19385;DHT22;9828;54.122;17.974;2023-04-24T01:55:27;13.70;99.90
19385;DHT22;9828;54.122;17.974;2023-04-24T02:00:49;13.70;99.90
19385;DHT22;9828;54.122;17.974;2023-04-24T02:06:10;13.60;99.90
19385;DHT22;9828;54.122;17.974;2023-04-24T02:11:32;13.60;99.90
19385;DHT22;9828;54.122;17.974;2023-04-24T02:16:54;13.60;99.90
19385;DHT22;9828;54.122;17.974;2023-04-24T02:22:16;13.60;99.90
19385;DHT22;9828;54.122;17.974;2023-04-24T02:27:38;13.60;99.90
19385;DHT22;9828;54.122;17.974;2023-04-24T02:33:00;13.50;99.90
19385;DHT22;9828;54.122;17.974;2023-04-24T02:38:21;13.50;99.90
19385;DHT22;9828;54.122;17.974;2023-04-24T02:43:43;13.40;99.90
19385;DHT22;9828;54.122;17.974;2023-04-24T02:49:04;13.40;99.90
19385;DHT22;9828;54.122;17.974;2023-04-24T02:54:25;13.20;99.90
19385;DHT22;9828;54.122;17.974;2023-04-24T02:59:47;13.30;99.90
19385;DHT22;9828;54.122;17.974;2023-04-24T03:05:08;13.20;99.90
19385;DHT22;9828;54.122;17.974;2023-04-24T03:10:30;13.20;99.90
19385;DHT22;9828;54.122;17.974;2023-04-24T03:15:51;13.10;99.90
19385;DHT22;9828;54.122;17.974;2023-04-24T03:21:14;13.00;99.90
19385;DHT22;9828;54.122;17.974;2023-04-24T03:26:38;13.00;99.90
19385;DHT22;9828;54.122;17.974;2023-04-24T03:32:13;12.90;99.90
19385;DHT22;9828;54.122;17.974;2023-04-24T03:37:35;13.00;99.90
19385;DHT22;9828;54.122;17.974;2023-04-24T03:43:32;13.00;99.90
19385;DHT22;9828;54.122;17.974;2023-04-24T03:48:56;12.90;99.90
19385;DHT22;9828;54.122;17.974;2023-04-24T03:54:22;12.80;99.90
19385;DHT22;9828;54.122;17.974;2023-04-24T03:59:45;12.80;99.90
19385;DHT22;9828;54.122;17.974;2023-04-24T04:05:10;12.80;99.90
19385;DHT22;9828;54.122;17.974;2023-04-24T04:10:32;12.70;99.90
19385;DHT22;9828;54.122;17.974;2023-04-24T04:15:53;12.60;99.90
19385;DHT22;9828;54.122;17.974;2023-04-24T04:21:15;12.70;99.90
19385;DHT22;9828;54.122;17.974;2023-04-24T04:26:37;12.80;99.90
19385;DHT22;9828;54.122;17.974;2023-04-24T04:32:02;12.80;99.90
19385;DHT22;9828;54.122;17.974;2023-04-24T04:37:24;12.80;99.90
19385;DHT22;9828;54.122;17.974;2023-04-24T04:43:06;12.80;99.90
19385;DHT22;9828;54.122;17.974;2023-04-24T04:48:37;12.80;99.90
19385;DHT22;9828;54.122;17.974;2023-04-24T04:54:00;12.90;99.90
19385;DHT22;9828;54.122;17.974;2023-04-24T04:59:23;12.90;99.90
19385;DHT22;9828;54.122;17.974;2023-04-24T05:04:50;12.90;99.90
19385;DHT22;9828;54.122;17.974;2023-04-24T05:10:12;12.90;99.90
19385;DHT22;9828;54.122;17.974;2023-04-24T05:15:33;12.90;99.90
19385;DHT22;9828;54.122;17.974;2023-04-24T05:20:56;13.00;99.90
19385;DHT22;9828;54.122;17.974;2023-04-24T05:26:18;13.00;99.90
19385;DHT22;9828;54.122;17.974;2023-04-24T05:31:40;12.90;99.90
19385;DHT22;9828;54.122;17.974;2023-04-24T05:37:02;13.00;99.90
19385;DHT22;9828;54.122;17.974;2023-04-24T05:42:24;12.90;99.90
19385;DHT22;9828;54.122;17.974;2023-04-24T05:47:46;13.00;99.90
19385;DHT22;9828;54.122;17.974;2023-04-24T05:53:07;13.10;99.90
19385;DHT22;9828;54.122;17.974;2023-04-24T05:58:30;13.20;99.90
19385;DHT22;9828;54.122;17.974;2023-04-24T06:03:52;13.20;99.90
19385;DHT22;9828;54.122;17.974;2023-04-24T06:09:14;13.20;99.90
19385;DHT22;9828;54.122;17.974;2023-04-24T06:14:35;13.20;99.90
19385;DHT22;9828;54.122;17.974;2023-04-24T06:20:17;13.20;99.90
19385;DHT22;9828;54.122;17.974;2023-04-24T06:25:39;13.00;99.90
19385;DHT22;9828;54.122;17.974;2023-04-24T06:31:01;13.00;99.90
19385;DHT22;9828;54.122;17.974;2023-04-24T06:36:22;13.00;99.90
19385;DHT22;9828;54.122;17.974;2023-04-24T06:41:43;13.00;99.90
19385;DHT22;9828;54.122;17.974;2023-04-24T06:47:12;13.10;99.90
19385;DHT22;9828;54.122;17.974;2023-04-24T06:52:34;13.20;99.90
19385;DHT22;9828;54.122;17.974;2023-04-24T06:57:56;13.10;99.90
19385;DHT22;9828;54.122;17.974;2023-04-24T07:03:17;13.10;99.90
19385;DHT22;9828;54.122;17.974;2023-04-24T07:08:39;13.10;99.90
19385;DHT22;9828;54.122;17.974;2023-04-24T07:14:02;13.10;99.90
19385;DHT22;9828;54.122;17.974;2023-04-24T07:19:24;13.20;99.90
19385;DHT22;9828;54.122;17.974;2023-04-24T07:24:45;13.10;99.90
19385;DHT22;9828;54.122;17.974;2023-04-24T07:30:07;13.20;99.90
19385;DHT22;9828;54.122;17.974;2023-04-24T07:35:30;13.70;99.90
19385;DHT22;9828;54.122;17.974;2023-04-24T07:40:52;14.30;99.90
19385;DHT22;9828;54.122;17.974;2023-04-24T07:46:13;15.20;99.90
19385;DHT22;9828;54.122;17.974;2023-04-24T07:51:34;16.00;99.90
19385;DHT22;9828;54.122;17.974;2023-04-24T07:56:59;17.30;99.90
19385;DHT22;9828;54.122;17.974;2023-04-24T08:02:21;18.50;99.90
19385;DHT22;9828;54.122;17.974;2023-04-24T08:07:47;19.20;99.90
19385;DHT22;9828;54.122;17.974;2023-04-24T08:13:11;19.80;98.70
19385;DHT22;9828;54.122;17.974;2023-04-24T08:18:32;20.60;1.00
19385;DHT22;9828;54.122;17.974;2023-04-24T08:23:54;20.50;1.00
19385;DHT22;9828;54.122;17.974;2023-04-24T08:29:16;20.90;99.90
19385;DHT22;9828;54.122;17.974;2023-04-24T08:34:37;21.40;99.90
19385;DHT22;9828;54.122;17.974;2023-04-24T08:39:58;21.90;1.00
19385;DHT22;9828;54.122;17.974;2023-04-24T08:45:21;21.60;79.10
19385;DHT22;9828;54.122;17.974;2023-04-24T08:50:42;22.20;11.90
19385;DHT22;9828;54.122;17.974;2023-04-24T08:56:06;22.50;1.00
19385;DHT22;9828;54.122;17.974;2023-04-24T09:01:28;22.90;1.00
19385;DHT22;9828;54.122;17.974;2023-04-24T09:06:56;22.40;1.00
19385;DHT22;9828;54.122;17.974;2023-04-24T09:12:19;22.30;1.00
19385;DHT22;9828;54.122;17.974;2023-04-24T09:17:40;22.30;1.00
19385;DHT22;9828;54.122;17.974;2023-04-24T09:23:02;22.00;1.00
19385;DHT22;9828;54.122;17.974;2023-04-24T09:28:31;22.20;1.00
19385;DHT22;9828;54.122;17.974;2023-04-24T09:34:00;22.80;1.00
19385;DHT22;9828;54.122;17.974;2023-04-24T09:39:22;23.00;1.00
19385;DHT22;9828;54.122;17.974;2023-04-24T09:44:44;23.10;1.00
19385;DHT22;9828;54.122;17.974;2023-04-24T09:50:13;23.40;1.00
19385;DHT22;9828;54.122;17.974;2023-04-24T09:55:39;24.50;1.00
19385;DHT22;9828;54.122;17.974;2023-04-24T10:01:02;24.10;1.00
19385;DHT22;9828;54.122;17.974;2023-04-24T10:06:34;23.90;1.00
19385;DHT22;9828;54.122;17.974;2023-04-24T10:11:56;24.10;1.00
19385;DHT22;9828;54.122;17.974;2023-04-24T10:17:18;24.10;1.00
19385;DHT22;9828;54.122;17.974;2023-04-24T10:22:42;24.30;1.00
19385;DHT22;9828;54.122;17.974;2023-04-24T10:28:04;24.40;1.00
19385;DHT22;9828;54.122;17.974;2023-04-24T10:33:26;23.90;1.00
19385;DHT22;9828;54.122;17.974;2023-04-24T10:38:48;23.10;1.00
19385;DHT22;9828;54.122;17.974;2023-04-24T10:44:13;23.10;1.00
19385;DHT22;9828;54.122;17.974;2023-04-24T10:49:36;23.30;1.00
19385;DHT22;9828;54.122;17.974;2023-04-24T10:55:01;23.70;1.00
19385;DHT22;9828;54.122;17.974;2023-04-24T11:00:25;24.40;1.00
19385;DHT22;9828;54.122;17.974;2023-04-24T11:06:04;25.00;1.00
19385;DHT22;9828;54.122;17.974;2023-04-24T11:11:28;24.30;1.00
19385;DHT22;9828;54.122;17.974;2023-04-24T11:16:54;23.40;1.00
19385;DHT22;9828;54.122;17.974;2023-04-24T11:22:18;22.80;1.00
19385;DHT22;9828;54.122;17.974;2023-04-24T11:27:43;22.20;1.00
19385;DHT22;9828;54.122;17.974;2023-04-24T11:33:05;21.80;1.00
19385;DHT22;9828;54.122;17.974;2023-04-24T11:38:27;21.00;1.00
19385;DHT22;9828;54.122;17.974;2023-04-24T11:43:48;20.90;1.00
19385;DHT22;9828;54.122;17.974;2023-04-24T11:49:12;20.60;1.00
19385;DHT22;9828;54.122;17.974;2023-04-24T11:54:33;20.40;1.00
19385;DHT22;9828;54.122;17.974;2023-04-24T11:59:54;20.20;1.00
19385;DHT22;9828;54.122;17.974;2023-04-24T12:05:23;20.00;1.00
19385;DHT22;9828;54.122;17.974;2023-04-24T12:10:51;20.00;1.00
19385;DHT22;9828;54.122;17.974;2023-04-24T12:16:13;20.20;1.00
19385;DHT22;9828;54.122;17.974;2023-04-24T12:21:35;20.30;1.00
19385;DHT22;9828;54.122;17.974;2023-04-24T12:26:57;20.50;1.00
19385;DHT22;9828;54.122;17.974;2023-04-24T12:32:19;21.10;1.00
19385;DHT22;9828;54.122;17.974;2023-04-24T12:37:42;21.80;1.00
19385;DHT22;9828;54.122;17.974;2023-04-24T12:43:19;21.50;1.00
19385;DHT22;9828;54.122;17.974;2023-04-24T12:48:40;20.80;1.00
19385;DHT22;9828;54.122;17.974;2023-04-24T12:54:05;20.60;1.00
19385;DHT22;9828;54.122;17.974;2023-04-24T12:59:27;20.50;1.00
19385;DHT22;9828;54.122;17.974;2023-04-24T13:04:49;20.30;1.00
19385;DHT22;9828;54.122;17.974;2023-04-24T13:10:10;20.40;1.00
19385;DHT22;9828;54.122;17.974;2023-04-24T13:15:31;20.20;1.00
19385;DHT22;9828;54.122;17.974;2023-04-24T13:20:53;20.40;1.00
19385;DHT22;9828;54.122;17.974;2023-04-24T13:26:14;20.30;1.00
19385;DHT22;9828;54.122;17.974;2023-04-24T13:31:36;20.10;1.00
19385;DHT22;9828;54.122;17.974;2023-04-24T13:36:58;20.00;1.00
19385;DHT22;9828;54.122;17.974;2023-04-24T13:42:19;20.00;1.00
19385;DHT22;9828;54.122;17.974;2023-04-24T13:47:41;20.00;1.00
19385;DHT22;9828;54.122;17.974;2023-04-24T13:53:03;20.00;1.00
19385;DHT22;9828;54.122;17.974;2023-04-24T13:58:25;20.20;1.00
19385;DHT22;9828;54.122;17.974;2023-04-24T14:03:46;20.20;1.00
19385;DHT22;9828;54.122;17.974;2023-04-24T14:09:07;20.20;1.00
19385;DHT22;9828;54.122;17.974;2023-04-24T14:14:29;20.00;1.00
19385;DHT22;9828;54.122;17.974;2023-04-24T14:19:50;19.80;1.00
19385;DHT22;9828;54.122;17.974;2023-04-24T14:25:13;19.30;1.00
19385;DHT22;9828;54.122;17.974;2023-04-24T14:30:34;18.80;1.00
19385;DHT22;9828;54.122;17.974;2023-04-24T14:35:55;18.90;1.00
19385;DHT22;9828;54.122;17.974;2023-04-24T14:41:17;19.00;15.80
19385;DHT22;9828;54.122;17.974;2023-04-24T14:46:39;18.60;1.00
19385;DHT22;9828;54.122;17.974;2023-04-24T14:52:00;18.30;1.00
19385;DHT22;9828;54.122;17.974;2023-04-24T15:02:46;18.10;1.00
19385;DHT22;9828;54.122;17.974;2023-04-24T15:08:07;18.00;99.90
19385;DHT22;9828;54.122;17.974;2023-04-24T15:13:29;18.20;99.90
19385;DHT22;9828;54.122;17.974;2023-04-24T15:18:51;17.70;1.00
19385;DHT22;9828;54.122;17.974;2023-04-24T15:24:12;16.80;1.00
19385;DHT22;9828;54.122;17.974;2023-04-24T15:29:34;17.50;99.90
19385;DHT22;9828;54.122;17.974;2023-04-24T15:34:55;17.30;1.00
19385;DHT22;9828;54.122;17.974;2023-04-24T15:40:25;17.10;1.00
19385;DHT22;9828;54.122;17.974;2023-04-24T15:45:47;17.10;1.00
19385;DHT22;9828;54.122;17.974;2023-04-24T15:51:10;17.00;99.90
19385;DHT22;9828;54.122;17.974;2023-04-24T15:56:31;16.80;1.00
19385;DHT22;9828;54.122;17.974;2023-04-24T16:01:56;16.20;1.00
19385;DHT22;9828;54.122;17.974;2023-04-24T16:07:17;16.20;1.00
19385;DHT22;9828;54.122;17.974;2023-04-24T16:12:38;15.90;99.90
19385;DHT22;9828;54.122;17.974;2023-04-24T16:17:59;15.70;99.90
19385;DHT22;9828;54.122;17.974;2023-04-24T16:23:21;15.50;99.90
19385;DHT22;9828;54.122;17.974;2023-04-24T16:28:42;13.80;99.90
19385;DHT22;9828;54.122;17.974;2023-04-24T16:39:27;15.20;99.90
19385;DHT22;9828;54.122;17.974;2023-04-24T16:44:48;15.20;99.90
19385;DHT22;9828;54.122;17.974;2023-04-24T16:50:10;15.10;99.90
19385;DHT22;9828;54.122;17.974;2023-04-24T16:55:31;15.00;99.90
19385;DHT22;9828;54.122;17.974;2023-04-24T17:00:53;15.10;99.90
19385;DHT22;9828;54.122;17.974;2023-04-24T17:06:14;15.30;99.90
19385;DHT22;9828;54.122;17.974;2023-04-24T17:11:36;15.30;99.90
19385;DHT22;9828;54.122;17.974;2023-04-24T17:16:57;15.30;99.90
19385;DHT22;9828;54.122;17.974;2023-04-24T17:22:18;15.30;99.90
19385;DHT22;9828;54.122;17.974;2023-04-24T17:27:40;15.30;99.90
19385;DHT22;9828;54.122;17.974;2023-04-24T17:33:01;15.30;99.90
19385;DHT22;9828;54.122;17.974;2023-04-24T17:38:23;15.20;99.90
19385;DHT22;9828;54.122;17.974;2023-04-24T17:43:44;15.10;99.90
19385;DHT22;9828;54.122;17.974;2023-04-24T17:49:05;15.20;99.90
19385;DHT22;9828;54.122;17.974;2023-04-24T17:54:26;15.10;99.90
19385;DHT22;9828;54.122;17.974;2023-04-24T17:59:48;15.00;99.90
19385;DHT22;9828;54.122;17.974;2023-04-24T18:05:09;14.90;99.90
19385;DHT22;9828;54.122;17.974;2023-04-24T18:10:32;14.80;99.90
19385;DHT22;9828;54.122;17.974;2023-04-24T18:15:53;14.70;99.90
19385;DHT22;9828;54.122;17.974;2023-04-24T18:21:15;14.60;99.90
19385;DHT22;9828;54.122;17.974;2023-04-24T18:26:36;14.60;99.90
19385;DHT22;9828;54.122;17.974;2023-04-24T18:31:57;14.60;99.90
19385;DHT22;9828;54.122;17.974;2023-04-24T18:37:19;14.70;99.90
19385;DHT22;9828;54.122;17.974;2023-04-24T18:42:41;14.70;99.90
19385;DHT22;9828;54.122;17.974;2023-04-24T18:48:03;14.60;99.90
19385;DHT22;9828;54.122;17.974;2023-04-24T18:53:24;14.60;99.90
19385;DHT22;9828;54.122;17.974;2023-04-24T18:58:45;14.60;99.90
19385;DHT22;9828;54.122;17.974;2023-04-24T19:04:07;14.50;99.90
19385;DHT22;9828;54.122;17.974;2023-04-24T19:09:28;14.40;99.90
19385;DHT22;9828;54.122;17.974;2023-04-24T19:14:50;14.40;99.90
19385;DHT22;9828;54.122;17.974;2023-04-24T19:20:12;14.40;99.90
19385;DHT22;9828;54.122;17.974;2023-04-24T19:25:33;14.30;99.90
19385;DHT22;9828;54.122;17.974;2023-04-24T19:30:54;14.30;99.90
19385;DHT22;9828;54.122;17.974;2023-04-24T19:36:18;14.20;99.90
19385;DHT22;9828;54.122;17.974;2023-04-24T19:41:39;14.20;99.90
19385;DHT22;9828;54.122;17.974;2023-04-24T19:47:01;14.00;99.90
19385;DHT22;9828;54.122;17.974;2023-04-24T19:57:44;13.90;99.90
19385;DHT22;9828;54.122;17.974;2023-04-24T20:03:06;14.00;99.90
19385;DHT22;9828;54.122;17.974;2023-04-24T20:08:27;14.00;99.90
19385;DHT22;9828;54.122;17.974;2023-04-24T20:13:50;14.00;99.90
19385;DHT22;9828;54.122;17.974;2023-04-24T20:19:11;14.00;99.90
19385;DHT22;9828;54.122;17.974;2023-04-24T20:24:33;14.00;99.90
19385;DHT22;9828;54.122;17.974;2023-04-24T20:29:54;14.00;99.90
19385;DHT22;9828;54.122;17.974;2023-04-24T20:35:16;13.90;99.90
19385;DHT22;9828;54.122;17.974;2023-04-24T20:40:37;13.80;99.90
19385;DHT22;9828;54.122;17.974;2023-04-24T20:46:04;13.80;99.90
19385;DHT22;9828;54.122;17.974;2023-04-24T20:51:26;13.80;99.90
19385;DHT22;9828;54.122;17.974;2023-04-24T20:56:47;13.60;99.90
19385;DHT22;9828;54.122;17.974;2023-04-24T21:02:09;13.50;99.90
19385;DHT22;9828;54.122;17.974;2023-04-24T21:07:31;13.40;99.90
19385;DHT22;9828;54.122;17.974;2023-04-24T21:12:52;13.30;99.90
19385;DHT22;9828;54.122;17.974;2023-04-24T21:18:14;13.30;99.90
19385;DHT22;9828;54.122;17.974;2023-04-24T21:23:36;13.30;99.90
19385;DHT22;9828;54.122;17.974;2023-04-24T21:28:57;13.20;99.90
19385;DHT22;9828;54.122;17.974;2023-04-24T21:34:19;13.20;99.90
19385;DHT22;9828;54.122;17.974;2023-04-24T21:39:40;13.20;99.90
19385;DHT22;9828;54.122;17.974;2023-04-24T21:45:03;13.20;99.90
19385;DHT22;9828;54.122;17.974;2023-04-24T21:50:25;13.10;99.90
19385;DHT22;9828;54.122;17.974;2023-04-24T21:55:46;13.10;99.90
19385;DHT22;9828;54.122;17.974;2023-04-24T22:01:08;13.20;99.90
19385;DHT22;9828;54.122;17.974;2023-04-24T22:06:30;13.10;99.90
19385;DHT22;9828;54.122;17.974;2023-04-24T22:11:51;13.10;99.90
19385;DHT22;9828;54.122;17.974;2023-04-24T22:17:13;13.00;99.90
19385;DHT22;9828;54.122;17.974;2023-04-24T22:22:37;13.10;99.90
19385;DHT22;9828;54.122;17.974;2023-04-24T22:27:58;13.10;99.90
19385;DHT22;9828;54.122;17.974;2023-04-24T22:33:20;13.10;99.90
19385;DHT22;9828;54.122;17.974;2023-04-24T22:38:41;13.00;99.90
19385;DHT22;9828;54.122;17.974;2023-04-24T22:44:03;13.10;99.90
19385;DHT22;9828;54.122;17.974;2023-04-24T22:49:24;13.00;99.90
19385;DHT22;9828;54.122;17.974;2023-04-24T22:54:47;13.00;99.90
19385;DHT22;9828;54.122;17.974;2023-04-24T23:00:10;12.90;99.90
19385;DHT22;9828;54.122;17.974;2023-04-24T23:05:32;13.00;99.90
19385;DHT22;9828;54.122;17.974;2023-04-24T23:10:53;12.90;99.90
19385;DHT22;9828;54.122;17.974;2023-04-24T23:16:14;12.80;99.90
19385;DHT22;9828;54.122;17.974;2023-04-24T23:21:36;12.70;99.90
19385;DHT22;9828;54.122;17.974;2023-04-24T23:26:58;12.60;99.90
19385;DHT22;9828;54.122;17.974;2023-04-24T23:32:19;12.60;99.90
19385;DHT22;9828;54.122;17.974;2023-04-24T23:43:02;12.60;99.90
19385;DHT22;9828;54.122;17.974;2023-04-24T23:48:26;12.60;99.90
19385;DHT22;9828;54.122;17.974;2023-04-24T23:53:48;12.60;99.90
19385;DHT22;9828;54.122;17.974;2023-04-24T23:59:09;12.60;99.90
